sensor_id;sensor_type;location;lat;lon;timestamp;pressure;altitude;pressure_sealevel;temperature;humidity
66154;BME280;52956;52.372;4.640;2022-07-18T00:00:27;102486.56;;;23.91;49.21
66154;BME280;52956;52.372;4.640;2022-07-18T00:02:52;102492.03;;;23.91;49.17
66154;BME280;52956;52.372;4.640;2022-07-18T00:05:17;102492.03;;;23.91;49.10
66154;BME280;52956;52.372;4.640;2022-07-18T00:07:42;102488.22;;;23.92;49.32
66154;BME280;52956;52.372;4.640;2022-07-18T00:10:08;102490.13;;;23.92;49.28
66154;BME280;52956;52.372;4.640;2022-07-18T00:12:33;102491.19;;;23.91;48.86
66154;BME280;52956;52.372;4.640;2022-07-18T00:14:59;102492.03;;;23.91;49.33
66154;BME280;52956;52.372;4.640;2022-07-18T00:17:24;102488.47;;;23.91;49.26
66154;BME280;52956;52.372;4.640;2022-07-18T00:19:49;102485.19;;;23.89;49.44
66154;BME280;52956;52.372;4.640;2022-07-18T00:22:15;102486.03;;;23.89;49.29
66154;BME280;52956;52.372;4.640;2022-07-18T00:24:41;102485.47;;;23.87;49.54
66154;BME280;52956;52.372;4.640;2022-07-18T00:27:06;102485.19;;;23.89;49.34
66154;BME280;52956;52.372;4.640;2022-07-18T00:29:33;102480.03;;;23.87;49.52
66154;BME280;52956;52.372;4.640;2022-07-18T00:32:01;102481.66;;;23.88;49.65
66154;BME280;52956;52.372;4.640;2022-07-18T00:34:26;102473.72;;;23.87;49.43
66154;BME280;52956;52.372;4.640;2022-07-18T00:36:52;102474.56;;;23.87;49.54
66154;BME280;52956;52.372;4.640;2022-07-18T00:39:17;102469.66;;;23.84;49.37
66154;BME280;52956;52.372;4.640;2022-07-18T00:41:47;102469.09;;;23.87;49.36
66154;BME280;52956;52.372;4.640;2022-07-18T00:44:24;102468.28;;;23.87;49.43
66154;BME280;52956;52.372;4.640;2022-07-18T00:46:51;102465.81;;;23.85;49.53
66154;BME280;52956;52.372;4.640;2022-07-18T00:49:17;102463.94;;;23.86;49.34
66154;BME280;52956;52.372;4.640;2022-07-18T00:51:42;102465.81;;;23.85;49.21
66154;BME280;52956;52.372;4.640;2022-07-18T00:54:08;102462.56;;;23.83;49.48
66154;BME280;52956;52.372;4.640;2022-07-18T00:56:33;102456.00;;;23.84;49.65
66154;BME280;52956;52.372;4.640;2022-07-18T00:58:59;102468.03;;;23.83;49.55
66154;BME280;52956;52.372;4.640;2022-07-18T01:01:24;102463.91;;;23.81;49.58
66154;BME280;52956;52.372;4.640;2022-07-18T01:04:09;102467.19;;;23.83;49.35
66154;BME280;52956;52.372;4.640;2022-07-18T01:06:35;102466.66;;;23.81;49.47
66154;BME280;52956;52.372;4.640;2022-07-18T01:09:00;102457.66;;;23.80;49.49
66154;BME280;52956;52.372;4.640;2022-07-18T01:11:27;102463.41;;;23.78;49.84
66154;BME280;52956;52.372;4.640;2022-07-18T01:13:53;102460.66;;;23.78;49.60
66154;BME280;52956;52.372;4.640;2022-07-18T01:16:18;102455.50;;;23.77;49.56
66154;BME280;52956;52.372;4.640;2022-07-18T01:18:49;102468.31;;;23.76;49.77
66154;BME280;52956;52.372;4.640;2022-07-18T01:21:14;102467.22;;;23.77;49.61
66154;BME280;52956;52.372;4.640;2022-07-18T01:23:41;102466.41;;;23.77;49.81
66154;BME280;52956;52.372;4.640;2022-07-18T01:26:06;102458.50;;;23.70;49.45
66154;BME280;52956;52.372;4.640;2022-07-18T01:28:32;102449.50;;;23.75;49.71
66154;BME280;52956;52.372;4.640;2022-07-18T01:30:57;102443.22;;;23.74;49.54
66154;BME280;52956;52.372;4.640;2022-07-18T01:33:22;102439.66;;;23.74;49.87
66154;BME280;52956;52.372;4.640;2022-07-18T01:35:48;102439.94;;;23.72;49.70
66154;BME280;52956;52.372;4.640;2022-07-18T01:38:13;102434.50;;;23.72;49.76
66154;BME280;52956;52.372;4.640;2022-07-18T01:40:39;102432.84;;;23.71;49.78
66154;BME280;52956;52.372;4.640;2022-07-18T01:43:04;102430.94;;;23.72;49.71
66154;BME280;52956;52.372;4.640;2022-07-18T01:45:30;102435.59;;;23.71;49.59
66154;BME280;52956;52.372;4.640;2022-07-18T01:47:55;102426.59;;;23.71;49.78
66154;BME280;52956;52.372;4.640;2022-07-18T01:50:20;102420.31;;;23.70;49.53
66154;BME280;52956;52.372;4.640;2022-07-18T01:52:46;102429.31;;;23.71;49.86
66154;BME280;52956;52.372;4.640;2022-07-18T01:55:12;102424.13;;;23.69;49.75
66154;BME280;52956;52.372;4.640;2022-07-18T01:57:37;102421.69;;;23.68;49.55
66154;BME280;52956;52.372;4.640;2022-07-18T02:00:05;102420.91;;;23.62;49.78
66154;BME280;52956;52.372;4.640;2022-07-18T02:02:31;102420.03;;;23.67;49.73
66154;BME280;52956;52.372;4.640;2022-07-18T02:04:57;102423.59;;;23.67;49.63
66154;BME280;52956;52.372;4.640;2022-07-18T02:07:26;102423.06;;;23.65;49.53
66154;BME280;52956;52.372;4.640;2022-07-18T02:09:52;102428.50;;;23.65;49.54
66154;BME280;52956;52.372;4.640;2022-07-18T02:12:17;102427.41;;;23.66;49.62
66154;BME280;52956;52.372;4.640;2022-07-18T02:14:42;102420.31;;;23.65;49.70
66154;BME280;52956;52.372;4.640;2022-07-18T02:17:08;102431.53;;;23.64;49.85
66154;BME280;52956;52.372;4.640;2022-07-18T02:19:33;102421.41;;;23.64;49.76
66154;BME280;52956;52.372;4.640;2022-07-18T02:21:58;102429.88;;;23.63;49.51
66154;BME280;52956;52.372;4.640;2022-07-18T02:24:24;102416.81;;;23.59;49.80
66154;BME280;52956;52.372;4.640;2022-07-18T02:26:49;102421.16;;;23.60;49.49
66154;BME280;52956;52.372;4.640;2022-07-18T02:29:14;102418.72;;;23.59;49.38
66154;BME280;52956;52.372;4.640;2022-07-18T02:31:40;102412.44;;;23.58;49.58
66154;BME280;52956;52.372;4.640;2022-07-18T02:34:05;102410.53;;;23.59;49.63
66154;BME280;52956;52.372;4.640;2022-07-18T02:36:39;102401.25;;;23.60;49.56
66154;BME280;52956;52.372;4.640;2022-07-18T02:39:05;102392.53;;;23.53;49.48
66154;BME280;52956;52.372;4.640;2022-07-18T02:41:31;102402.63;;;23.57;49.60
66154;BME280;52956;52.372;4.640;2022-07-18T02:43:56;102405.09;;;23.54;49.64
66154;BME280;52956;52.372;4.640;2022-07-18T02:46:22;102406.44;;;23.56;49.56
66154;BME280;52956;52.372;4.640;2022-07-18T02:48:47;102409.44;;;23.55;49.61
66154;BME280;52956;52.372;4.640;2022-07-18T02:51:12;102405.09;;;23.54;49.40
66154;BME280;52956;52.372;4.640;2022-07-18T02:53:38;102396.91;;;23.54;49.54
66154;BME280;52956;52.372;4.640;2022-07-18T02:56:03;102388.16;;;23.52;49.52
66154;BME280;52956;52.372;4.640;2022-07-18T02:58:29;102389.81;;;23.53;49.48
66154;BME280;52956;52.372;4.640;2022-07-18T03:00:54;102382.72;;;23.52;49.35
66154;BME280;52956;52.372;4.640;2022-07-18T03:03:20;102379.47;;;23.50;49.83
66154;BME280;52956;52.372;4.640;2022-07-18T03:05:45;102382.19;;;23.50;49.41
66154;BME280;52956;52.372;4.640;2022-07-18T03:08:11;102384.09;;;23.49;49.40
66154;BME280;52956;52.372;4.640;2022-07-18T03:10:36;102384.38;;;23.48;49.37
66154;BME280;52956;52.372;4.640;2022-07-18T03:13:01;102366.38;;;23.47;49.42
66154;BME280;52956;52.372;4.640;2022-07-18T03:15:27;102378.38;;;23.45;49.20
66154;BME280;52956;52.372;4.640;2022-07-18T03:17:52;102362.28;;;23.44;49.55
66154;BME280;52956;52.372;4.640;2022-07-18T03:20:17;102359.28;;;23.45;49.49
66154;BME280;52956;52.372;4.640;2022-07-18T03:22:43;102370.47;;;23.44;49.75
66154;BME280;52956;52.372;4.640;2022-07-18T03:25:08;102359.56;;;23.44;49.28
66154;BME280;52956;52.372;4.640;2022-07-18T03:27:33;102359.00;;;23.42;49.33
66154;BME280;52956;52.372;4.640;2022-07-18T03:29:59;102360.66;;;23.43;49.41
66154;BME280;52956;52.372;4.640;2022-07-18T03:32:24;102349.47;;;23.39;49.24
66154;BME280;52956;52.372;4.640;2022-07-18T03:34:49;102353.84;;;23.40;48.87
66154;BME280;52956;52.372;4.640;2022-07-18T03:37:15;102348.69;;;23.39;48.74
66154;BME280;52956;52.372;4.640;2022-07-18T03:39:40;102349.47;;;23.39;49.02
66154;BME280;52956;52.372;4.640;2022-07-18T03:42:05;102343.50;;;23.37;48.65
66154;BME280;52956;52.372;4.640;2022-07-18T03:44:31;102341.06;;;23.36;48.97
66154;BME280;52956;52.372;4.640;2022-07-18T03:46:56;102330.16;;;23.31;48.81
66154;BME280;52956;52.372;4.640;2022-07-18T03:49:21;102337.50;;;23.35;48.73
66154;BME280;52956;52.372;4.640;2022-07-18T03:51:47;102331.50;;;23.33;48.95
66154;BME280;52956;52.372;4.640;2022-07-18T03:54:12;102330.41;;;23.34;48.62
66154;BME280;52956;52.372;4.640;2022-07-18T03:56:38;102338.06;;;23.32;48.65
66154;BME280;52956;52.372;4.640;2022-07-18T03:59:03;102334.81;;;23.30;48.32
66154;BME280;52956;52.372;4.640;2022-07-18T04:01:28;102339.16;;;23.31;48.38
66154;BME280;52956;52.372;4.640;2022-07-18T04:03:54;102339.69;;;23.28;48.54
66154;BME280;52956;52.372;4.640;2022-07-18T04:06:19;102337.53;;;23.25;48.46
66154;BME280;52956;52.372;4.640;2022-07-18T04:08:44;102331.53;;;23.23;48.22
66154;BME280;52956;52.372;4.640;2022-07-18T04:11:10;102324.44;;;23.22;48.43
66154;BME280;52956;52.372;4.640;2022-07-18T04:13:35;102323.38;;;23.23;48.11
66154;BME280;52956;52.372;4.640;2022-07-18T04:16:00;102325.81;;;23.24;48.48
66154;BME280;52956;52.372;4.640;2022-07-18T04:18:26;102330.44;;;23.24;48.29
66154;BME280;52956;52.372;4.640;2022-07-18T04:20:51;102333.19;;;23.24;48.37
66154;BME280;52956;52.372;4.640;2022-07-18T04:23:16;102334.84;;;23.20;48.42
66154;BME280;52956;52.372;4.640;2022-07-18T04:25:43;102334.25;;;23.23;48.49
66154;BME280;52956;52.372;4.640;2022-07-18T04:28:11;102345.16;;;23.23;48.50
66154;BME280;52956;52.372;4.640;2022-07-18T04:30:38;102348.19;;;23.21;48.39
66154;BME280;52956;52.372;4.640;2022-07-18T04:33:05;102347.09;;;23.22;48.29
66154;BME280;52956;52.372;4.640;2022-07-18T04:35:30;102344.88;;;23.24;47.94
66154;BME280;52956;52.372;4.640;2022-07-18T04:37:56;102349.00;;;23.06;45.73
66154;BME280;52956;52.372;4.640;2022-07-18T04:40:21;102344.63;;;23.05;47.08
66154;BME280;52956;52.372;4.640;2022-07-18T04:42:47;102347.38;;;23.05;47.42
66154;BME280;52956;52.372;4.640;2022-07-18T04:45:13;102350.63;;;23.07;47.58
66154;BME280;52956;52.372;4.640;2022-07-18T04:47:38;102347.38;;;23.05;47.61
66154;BME280;52956;52.372;4.640;2022-07-18T04:50:05;102347.63;;;23.09;47.90
66154;BME280;52956;52.372;4.640;2022-07-18T04:52:42;102349.00;;;23.11;47.84
66154;BME280;52956;52.372;4.640;2022-07-18T04:55:09;102353.34;;;23.12;47.70
66154;BME280;52956;52.372;4.640;2022-07-18T04:57:35;102350.63;;;23.12;47.99
66154;BME280;52956;52.372;4.640;2022-07-18T05:00:06;102358.81;;;23.12;47.84
66154;BME280;52956;52.372;4.640;2022-07-18T05:02:32;102351.19;;;23.15;47.97
66154;BME280;52956;52.372;4.640;2022-07-18T05:04:57;102345.72;;;23.15;48.20
66154;BME280;52956;52.372;4.640;2022-07-18T05:07:22;102343.81;;;23.15;47.99
66154;BME280;52956;52.372;4.640;2022-07-18T05:09:48;102338.34;;;23.15;48.17
66154;BME280;52956;52.372;4.640;2022-07-18T05:12:13;102335.06;;;23.13;48.06
66154;BME280;52956;52.372;4.640;2022-07-18T05:14:38;102334.56;;;23.16;48.20
66154;BME280;52956;52.372;4.640;2022-07-18T05:17:03;102332.66;;;23.17;48.43
66154;BME280;52956;52.372;4.640;2022-07-18T05:19:29;102321.44;;;23.13;48.37
66154;BME280;52956;52.372;4.640;2022-07-18T05:21:54;102327.19;;;23.17;48.34
66154;BME280;52956;52.372;4.640;2022-07-18T05:24:19;102327.75;;;23.19;48.29
66154;BME280;52956;52.372;4.640;2022-07-18T05:26:45;102325.31;;;23.17;48.32
66154;BME280;52956;52.372;4.640;2022-07-18T05:29:11;102327.75;;;23.19;48.46
66154;BME280;52956;52.372;4.640;2022-07-18T05:31:38;102310.28;;;23.15;48.37
66154;BME280;52956;52.372;4.640;2022-07-18T05:34:04;102310.03;;;23.16;48.41
66154;BME280;52956;52.372;4.640;2022-07-18T05:36:29;102321.22;;;23.20;48.42
66154;BME280;52956;52.372;4.640;2022-07-18T05:38:54;102316.84;;;23.13;48.35
66154;BME280;52956;52.372;4.640;2022-07-18T05:41:19;102320.63;;;23.23;48.43
66154;BME280;52956;52.372;4.640;2022-07-18T05:43:45;102321.47;;;23.23;48.24
66154;BME280;52956;52.372;4.640;2022-07-18T05:46:10;102318.75;;;23.23;48.30
66154;BME280;52956;52.372;4.640;2022-07-18T05:48:35;102317.09;;;23.22;48.25
66154;BME280;52956;52.372;4.640;2022-07-18T05:51:01;102330.72;;;23.27;47.83
66154;BME280;52956;52.372;4.640;2022-07-18T05:53:26;102323.34;;;23.28;48.13
66154;BME280;52956;52.372;4.640;2022-07-18T05:55:51;102316.81;;;23.29;48.01
66154;BME280;52956;52.372;4.640;2022-07-18T05:58:17;102315.16;;;23.28;47.93
66154;BME280;52956;52.372;4.640;2022-07-18T06:00:42;102311.38;;;23.24;47.75
66154;BME280;52956;52.372;4.640;2022-07-18T06:03:07;102313.00;;;23.30;48.08
66154;BME280;52956;52.372;4.640;2022-07-18T06:05:33;102310.81;;;23.32;47.85
66154;BME280;52956;52.372;4.640;2022-07-18T06:07:58;102304.81;;;23.30;47.59
66154;BME280;52956;52.372;4.640;2022-07-18T06:10:26;102309.69;;;23.33;47.83
66154;BME280;52956;52.372;4.640;2022-07-18T06:12:52;102307.78;;;23.34;47.71
66154;BME280;52956;52.372;4.640;2022-07-18T06:15:18;102325.50;;;23.36;47.67
66154;BME280;52956;52.372;4.640;2022-07-18T06:17:44;102314.66;;;23.26;46.56
66154;BME280;52956;52.372;4.640;2022-07-18T06:20:09;102313.28;;;23.28;46.57
66154;BME280;52956;52.372;4.640;2022-07-18T06:22:36;102314.63;;;23.31;46.97
66154;BME280;52956;52.372;4.640;2022-07-18T06:25:02;102311.06;;;23.31;47.12
66154;BME280;52956;52.372;4.640;2022-07-18T06:27:27;102312.19;;;23.29;47.47
66154;BME280;52956;52.372;4.640;2022-07-18T06:29:53;102318.72;;;23.34;47.55
66154;BME280;52956;52.372;4.640;2022-07-18T06:32:18;102309.44;;;23.35;47.23
66154;BME280;52956;52.372;4.640;2022-07-18T06:34:44;102305.34;;;23.37;47.04
66154;BME280;52956;52.372;4.640;2022-07-18T06:37:09;102281.63;;;23.33;46.74
66154;BME280;52956;52.372;4.640;2022-07-18T06:39:34;102291.41;;;23.39;47.07
66154;BME280;52956;52.372;4.640;2022-07-18T06:42:00;102291.13;;;23.40;46.88
66154;BME280;52956;52.372;4.640;2022-07-18T06:44:25;102288.13;;;23.42;46.79
66154;BME280;52956;52.372;4.640;2022-07-18T06:46:50;102284.59;;;23.41;47.21
66154;BME280;52956;52.372;4.640;2022-07-18T06:49:17;102285.13;;;23.43;47.13
66154;BME280;52956;52.372;4.640;2022-07-18T06:51:43;102286.75;;;23.39;47.17
66154;BME280;52956;52.372;4.640;2022-07-18T06:54:08;102298.75;;;23.43;46.79
66154;BME280;52956;52.372;4.640;2022-07-18T06:56:33;102294.66;;;23.46;46.85
66154;BME280;52956;52.372;4.640;2022-07-18T06:58:59;102288.13;;;23.47;46.91
66154;BME280;52956;52.372;4.640;2022-07-18T07:01:24;102282.38;;;23.49;46.99
66154;BME280;52956;52.372;4.640;2022-07-18T07:03:50;102292.19;;;23.50;46.96
66154;BME280;52956;52.372;4.640;2022-07-18T07:06:15;102281.00;;;23.51;47.10
66154;BME280;52956;52.372;4.640;2022-07-18T07:08:41;102283.72;;;23.51;47.32
66154;BME280;52956;52.372;4.640;2022-07-18T07:11:07;102295.44;;;23.52;47.59
66154;BME280;52956;52.372;4.640;2022-07-18T07:13:33;102282.91;;;23.51;47.13
66154;BME280;52956;52.372;4.640;2022-07-18T07:15:58;102295.44;;;23.52;46.69
66154;BME280;52956;52.372;4.640;2022-07-18T07:18:23;102296.28;;;23.52;46.87
66154;BME280;52956;52.372;4.640;2022-07-18T07:20:49;102303.63;;;23.52;47.00
66154;BME280;52956;52.372;4.640;2022-07-18T07:23:14;102310.44;;;23.54;47.17
66154;BME280;52956;52.372;4.640;2022-07-18T07:25:39;102309.34;;;23.55;47.45
66154;BME280;52956;52.372;4.640;2022-07-18T07:28:06;102314.50;;;23.57;47.13
66154;BME280;52956;52.372;4.640;2022-07-18T07:30:33;102320.78;;;23.57;47.21
66154;BME280;52956;52.372;4.640;2022-07-18T07:32:59;102318.34;;;23.56;47.15
66154;BME280;52956;52.372;4.640;2022-07-18T07:35:25;102324.06;;;23.59;47.45
66154;BME280;52956;52.372;4.640;2022-07-18T07:37:59;102313.97;;;23.60;47.29
66154;BME280;52956;52.372;4.640;2022-07-18T07:40:27;102323.50;;;23.63;47.43
66154;BME280;52956;52.372;4.640;2022-07-18T07:43:07;102312.31;;;23.59;47.56
66154;BME280;52956;52.372;4.640;2022-07-18T07:45:33;102312.03;;;23.60;47.49
66154;BME280;52956;52.372;4.640;2022-07-18T07:47:58;102311.19;;;23.65;47.49
66154;BME280;52956;52.372;4.640;2022-07-18T07:50:23;102307.41;;;23.61;47.60
66154;BME280;52956;52.372;4.640;2022-07-18T07:52:49;102304.66;;;23.66;47.62
66154;BME280;52956;52.372;4.640;2022-07-18T07:55:14;102302.47;;;23.68;47.63
66154;BME280;52956;52.372;4.640;2022-07-18T07:57:39;102302.47;;;23.68;47.35
66154;BME280;52956;52.372;4.640;2022-07-18T08:00:06;102291.56;;;23.68;47.80
66154;BME280;52956;52.372;4.640;2022-07-18T08:02:33;102301.09;;;23.71;47.88
66154;BME280;52956;52.372;4.640;2022-07-18T08:04:59;102295.06;;;23.74;48.59
66154;BME280;52956;52.372;4.640;2022-07-18T08:07:24;102290.94;;;23.76;48.74
66154;BME280;52956;52.372;4.640;2022-07-18T08:09:49;102299.66;;;23.84;48.81
66154;BME280;52956;52.372;4.640;2022-07-18T08:12:14;102292.81;;;23.86;48.63
66154;BME280;52956;52.372;4.640;2022-07-18T08:14:40;102295.00;;;23.89;48.77
66154;BME280;52956;52.372;4.640;2022-07-18T08:17:07;102297.44;;;23.91;50.56
66154;BME280;52956;52.372;4.640;2022-07-18T08:19:33;102294.16;;;23.94;48.95
66154;BME280;52956;52.372;4.640;2022-07-18T08:21:58;102295.50;;;23.97;48.94
66154;BME280;52956;52.372;4.640;2022-07-18T08:24:23;102299.56;;;23.99;48.58
66154;BME280;52956;52.372;4.640;2022-07-18T08:26:49;102298.47;;;24.00;48.70
66154;BME280;52956;52.372;4.640;2022-07-18T08:29:14;102301.75;;;24.02;48.37
66154;BME280;52956;52.372;4.640;2022-07-18T08:31:39;102305.00;;;24.04;48.47
66154;BME280;52956;52.372;4.640;2022-07-18T08:34:05;102292.72;;;24.07;48.41
66154;BME280;52956;52.372;4.640;2022-07-18T08:36:30;102302.25;;;24.09;48.38
66154;BME280;52956;52.372;4.640;2022-07-18T08:38:55;102304.69;;;24.11;48.33
66154;BME280;52956;52.372;4.640;2022-07-18T08:41:23;102296.22;;;24.13;48.38
66154;BME280;52956;52.372;4.640;2022-07-18T08:43:49;102294.03;;;24.15;48.00
66154;BME280;52956;52.372;4.640;2022-07-18T08:46:17;102292.94;;;24.16;48.07
66154;BME280;52956;52.372;4.640;2022-07-18T08:48:43;102290.72;;;24.18;47.73
66154;BME280;52956;52.372;4.640;2022-07-18T08:51:09;102289.63;;;24.19;48.07
66154;BME280;52956;52.372;4.640;2022-07-18T08:53:37;102282.78;;;24.21;48.02
66154;BME280;52956;52.372;4.640;2022-07-18T08:56:03;102288.22;;;24.21;47.96
66154;BME280;52956;52.372;4.640;2022-07-18T08:58:29;102281.66;;;24.22;47.87
66154;BME280;52956;52.372;4.640;2022-07-18T09:00:54;102282.47;;;24.23;47.53
66154;BME280;52956;52.372;4.640;2022-07-18T09:03:19;102292.00;;;24.25;47.85
66154;BME280;52956;52.372;4.640;2022-07-18T09:05:45;102290.41;;;24.24;47.81
66154;BME280;52956;52.372;4.640;2022-07-18T09:08:13;102287.91;;;24.28;47.87
66154;BME280;52956;52.372;4.640;2022-07-18T09:10:51;102282.44;;;24.28;47.91
66154;BME280;52956;52.372;4.640;2022-07-18T09:13:24;102274.53;;;24.26;47.45
66154;BME280;52956;52.372;4.640;2022-07-18T09:16:00;102281.06;;;24.31;47.79
66154;BME280;52956;52.372;4.640;2022-07-18T09:18:30;102279.94;;;24.32;47.32
66154;BME280;52956;52.372;4.640;2022-07-18T09:21:00;102270.66;;;24.33;47.49
66154;BME280;52956;52.372;4.640;2022-07-18T09:23:28;102278.56;;;24.34;47.42
66154;BME280;52956;52.372;4.640;2022-07-18T09:25:54;102282.13;;;24.35;47.64
66154;BME280;52956;52.372;4.640;2022-07-18T09:28:19;102280.50;;;24.34;47.73
66154;BME280;52956;52.372;4.640;2022-07-18T09:30:44;102280.50;;;24.34;47.71
66154;BME280;52956;52.372;4.640;2022-07-18T09:33:10;102273.09;;;24.34;47.48
66154;BME280;52956;52.372;4.640;2022-07-18T09:35:53;102278.56;;;24.34;47.54
66154;BME280;52956;52.372;4.640;2022-07-18T09:38:21;102268.75;;;24.33;47.47
66154;BME280;52956;52.372;4.640;2022-07-18T09:40:49;102268.75;;;24.33;47.62
66154;BME280;52956;52.372;4.640;2022-07-18T09:43:16;102274.72;;;24.35;47.39
66154;BME280;52956;52.372;4.640;2022-07-18T09:45:44;102272.84;;;24.36;47.61
66154;BME280;52956;52.372;4.640;2022-07-18T09:48:13;102258.88;;;24.37;47.85
66154;BME280;52956;52.372;4.640;2022-07-18T09:50:49;102257.25;;;24.36;48.00
66154;BME280;52956;52.372;4.640;2022-07-18T09:53:20;102265.97;;;24.38;48.32
66154;BME280;52956;52.372;4.640;2022-07-18T09:55:53;102258.28;;;24.40;48.78
66154;BME280;52956;52.372;4.640;2022-07-18T09:58:21;102265.41;;;24.41;48.98
66154;BME280;52956;52.372;4.640;2022-07-18T10:00:48;102264.59;;;24.41;49.18
66154;BME280;52956;52.372;4.640;2022-07-18T10:03:14;102259.63;;;24.43;48.83
66154;BME280;52956;52.372;4.640;2022-07-18T10:05:43;102262.38;;;24.43;49.58
66154;BME280;52956;52.372;4.640;2022-07-18T10:08:11;102256.34;;;24.46;49.27
66154;BME280;52956;52.372;4.640;2022-07-18T10:10:38;102263.94;;;24.49;49.35
66154;BME280;52956;52.372;4.640;2022-07-18T10:13:05;102262.56;;;24.52;48.87
66154;BME280;52956;52.372;4.640;2022-07-18T10:15:34;102260.38;;;24.54;49.01
66154;BME280;52956;52.372;4.640;2022-07-18T10:18:01;102260.91;;;24.56;48.97
66154;BME280;52956;52.372;4.640;2022-07-18T10:20:33;102248.59;;;24.58;48.91
66154;BME280;52956;52.372;4.640;2022-07-18T10:23:02;102246.16;;;24.57;48.94
66154;BME280;52956;52.372;4.640;2022-07-18T10:25:32;102255.38;;;24.61;48.51
66154;BME280;52956;52.372;4.640;2022-07-18T10:28:03;102257.03;;;24.62;48.66
66154;BME280;52956;52.372;4.640;2022-07-18T10:30:44;102251.84;;;24.61;48.67
66154;BME280;52956;52.372;4.640;2022-07-18T10:33:42;102254.59;;;24.61;48.52
66154;BME280;52956;52.372;4.640;2022-07-18T10:41:29;102251.31;;;24.58;48.13
66154;BME280;52956;52.372;4.640;2022-07-18T10:43:54;102247.25;;;24.56;48.12
66154;BME280;52956;52.372;4.640;2022-07-18T10:46:20;102256.78;;;24.58;48.29
66154;BME280;52956;52.372;4.640;2022-07-18T10:48:50;102251.31;;;24.58;48.37
66154;BME280;52956;52.372;4.640;2022-07-18T10:51:16;102247.75;;;24.58;47.89
66154;BME280;52956;52.372;4.640;2022-07-18T10:54:06;102252.13;;;24.59;48.10
66154;BME280;52956;52.372;4.640;2022-07-18T10:59:21;102249.38;;;24.59;48.17
66154;BME280;52956;52.372;4.640;2022-07-18T11:01:54;102245.03;;;24.58;47.76
66154;BME280;52956;52.372;4.640;2022-07-18T11:04:34;102248.28;;;24.60;47.73
66154;BME280;52956;52.372;4.640;2022-07-18T11:09:47;102233.00;;;24.59;47.39
66154;BME280;52956;52.372;4.640;2022-07-18T11:12:29;102236.56;;;24.60;47.89
66154;BME280;52956;52.372;4.640;2022-07-18T11:15:08;102236.25;;;24.61;47.87
66154;BME280;52956;52.372;4.640;2022-07-18T11:17:57;102239.53;;;24.63;47.69
66154;BME280;52956;52.372;4.640;2022-07-18T11:23:02;102220.66;;;24.62;47.54
66154;BME280;52956;52.372;4.640;2022-07-18T11:25:29;102231.06;;;24.65;47.42
66154;BME280;52956;52.372;4.640;2022-07-18T11:27:55;102231.88;;;24.65;47.77
66154;BME280;52956;52.372;4.640;2022-07-18T11:30:22;102223.66;;;24.65;47.38
66154;BME280;52956;52.372;4.640;2022-07-18T11:32:48;102225.00;;;24.68;47.83
66154;BME280;52956;52.372;4.640;2022-07-18T11:35:13;102219.28;;;24.69;47.43
66154;BME280;52956;52.372;4.640;2022-07-18T11:37:46;102216.53;;;24.69;47.33
66154;BME280;52956;52.372;4.640;2022-07-18T11:40:12;102208.34;;;24.69;47.70
66154;BME280;52956;52.372;4.640;2022-07-18T11:42:40;102220.63;;;24.72;47.82
66154;BME280;52956;52.372;4.640;2022-07-18T11:45:07;102206.66;;;24.73;47.64
66154;BME280;52956;52.372;4.640;2022-07-18T11:47:46;102201.19;;;24.73;47.86
66154;BME280;52956;52.372;4.640;2022-07-18T11:50:13;102205.56;;;24.74;47.84
66154;BME280;52956;52.372;4.640;2022-07-18T11:52:38;102200.59;;;24.77;47.49
66154;BME280;52956;52.372;4.640;2022-07-18T11:55:04;102196.75;;;24.78;47.76
66154;BME280;52956;52.372;4.640;2022-07-18T11:57:31;102193.50;;;24.76;47.85
66154;BME280;52956;52.372;4.640;2022-07-18T11:59:57;102198.09;;;24.80;47.59
66154;BME280;52956;52.372;4.640;2022-07-18T12:05:36;102201.38;;;24.82;47.89
66154;BME280;52956;52.372;4.640;2022-07-18T12:11:10;102191.75;;;24.85;47.69
66154;BME280;52956;52.372;4.640;2022-07-18T12:16:41;102190.66;;;24.86;47.54
66154;BME280;52956;52.372;4.640;2022-07-18T12:19:18;102191.16;;;24.88;47.95
66154;BME280;52956;52.372;4.640;2022-07-18T12:24:25;102188.97;;;24.90;47.84
66154;BME280;52956;52.372;4.640;2022-07-18T12:30:10;102187.56;;;24.93;48.02
66154;BME280;52956;52.372;4.640;2022-07-18T12:35:09;102178.78;;;24.96;47.94
66154;BME280;52956;52.372;4.640;2022-07-18T12:37:35;102177.66;;;24.97;48.19
66154;BME280;52956;52.372;4.640;2022-07-18T12:40:09;102175.22;;;24.95;47.77
66154;BME280;52956;52.372;4.640;2022-07-18T12:42:40;102174.38;;;25.00;47.64
66154;BME280;52956;52.372;4.640;2022-07-18T12:45:08;102174.06;;;25.01;47.95
66154;BME280;52956;52.372;4.640;2022-07-18T12:47:34;102172.44;;;25.00;47.78
66154;BME280;52956;52.372;4.640;2022-07-18T12:49:59;102179.22;;;25.03;47.59
66154;BME280;52956;52.372;4.640;2022-07-18T12:52:25;102171.84;;;25.03;48.00
66154;BME280;52956;52.372;4.640;2022-07-18T12:54:50;102181.09;;;25.08;47.73
66154;BME280;52956;52.372;4.640;2022-07-18T12:57:17;102175.31;;;25.09;47.71
66154;BME280;52956;52.372;4.640;2022-07-18T12:59:43;102175.31;;;25.09;48.19
66154;BME280;52956;52.372;4.640;2022-07-18T13:02:08;102161.94;;;25.08;48.12
66154;BME280;52956;52.372;4.640;2022-07-18T13:04:34;102160.56;;;25.10;47.70
66154;BME280;52956;52.372;4.640;2022-07-18T13:06:59;102161.88;;;25.13;47.55
66154;BME280;52956;52.372;4.640;2022-07-18T13:09:24;102156.72;;;25.11;47.84
66154;BME280;52956;52.372;4.640;2022-07-18T13:11:50;102152.28;;;25.15;47.72
66154;BME280;52956;52.372;4.640;2022-07-18T13:14:17;102162.94;;;25.17;47.79
66154;BME280;52956;52.372;4.640;2022-07-18T13:16:44;102146.00;;;25.15;47.52
66154;BME280;52956;52.372;4.640;2022-07-18T13:19:12;102142.97;;;25.16;47.68